Aeroporto :
LOGIN :

Iscrizione | Disclaimer

   EN    FR    IT 

 










Sommario :    VFR   VFR Marginale   IFR   IFR Intensivo   IFR Molto Intensivo
Visibilità : 
Base nubi : 
>= 8 km
>= 3000ft
5 / 8 km
1000 / 3000 ft
1500m / 5 km
500 / 1000 ft
800 / 1500m
200 / 500 ft
< 800m
< 200 ft
Simboli :   Temporali  Nebbia  Neve Forte  Precipitazioni Forti  Vento > 20 kt
SIGMETs :   Varie  Temporali  Ghiacco  Turbolenza  Onda orograficha  Ceneri Vulcaniche






- Altitudine del aeroporto : 659 ft
- Codice IATA : LYN


LFLY - Lyon Bron

ULTIMO METAR :
  • 180130Z AUTO 13004KT CAVOK 16/13 Q1014 TEMPO 20017G27KT

METARs OBSOLETI :
  • 180100Z AUTO 14007KT 9999 FEW046 BKN062 BKN082 17/13 Q1014 TEMPO 20017G27KT
  • 180030Z AUTO 17010KT CAVOK 17/13 Q1015 TEMPO 20017G27KT
  • 180000Z AUTO 18012KT CAVOK 17/13 Q1015 NOSIG
  • 172330Z AUTO 18011KT 9999 OVC054 18/13 Q1015 NOSIG
  • 172300Z AUTO 18011KT 9999 BKN054 OVC076 18/13 Q1015 NOSIG

TAF TAF LFLY
Valido dal 18 a 00 ore il 19 a 00 ore UTC


172300Z 1800/1824 18012KT CAVOK
TEMPO 1802/1813 20017G27KT
PROB40
TEMPO 1808/1816 4000 SHRA BKN040TCU OVC060
ATIS : +33 4 72 15 87 96



MetMap, La meteo Aeronautica in un colpo d'occhio ! - Copyright ORBIFLY Dicembre 2007 - Disclaimer

ORBIFLY MET'MAP TEAM :

Programmazione e sviluppo : Alexandra Zaïnal
Concezione e sviluppo : Baudouin d'Aumeries
Co-Programmazione e sviluppo : Marc-Olivier Méhu
Supporto tecnico e logistico : Manuel Goepfert
Aiuto per la traduzione : Arnaldo La Scala

Contatto : metmap@orbifly.com




FONTI E CREDITI :

   NOAA